Time;durP1;ratioP1;P1;durP2;ratioP2;P2;SDS_P1;SDS_P2;PMS_P1;PMS_P2;Temp;Humidity;BMP_temperature;BMP_pressure;BME280_temperature;BME280_humidity;BME280_pressure;Samples;Min_cycle;Max_cycle;Signal;HPM_P1;HPM_P2
2022/08/24 00:02:29;;;;;;;4.93;4.20;;;21.60;71.30;;;;;;10539457;28;20243;-79
2022/08/24 00:07:32;;;;;;;5.00;4.60;;;21.60;71.30;;;;;;10508711;28;20946;-80
2022/08/24 00:12:34;;;;;;;8.60;4.50;;;21.60;71.40;;;;;;10544967;28;20226;-80
2022/08/24 00:17:38;;;;;;;6.90;6.30;;;21.50;71.50;;;;;;10508119;28;20299;-80
2022/08/24 00:22:40;;;;;;;4.97;4.67;;;21.50;71.90;;;;;;10526892;28;20252;-80
2022/08/24 00:27:42;;;;;;;4.40;4.20;;;21.40;72.10;;;;;;10474530;28;20304;-81
2022/08/24 00:32:47;;;;;;;5.60;5.20;;;21.30;71.90;;;;;;10526794;28;20204;-80
2022/08/24 00:37:51;;;;;;;5.13;4.50;;;21.40;72.10;;;;;;10487693;28;20213;-80
2022/08/24 00:42:55;;;;;;;5.47;5.10;;;21.30;71.90;;;;;;10527451;28;20217;-79
2022/08/24 00:48:01;;;;;;;5.33;4.93;;;21.30;73.20;;;;;;10504012;28;20277;-80
2022/08/24 00:53:09;;;;;;;5.30;4.90;;;21.20;72.50;;;;;;10541918;28;20187;-80
2022/08/24 00:58:16;;;;;;;4.57;4.27;;;21.20;72.30;;;;;;10448005;28;20209;-80
2022/08/24 01:03:20;;;;;;;5.40;5.00;;;21.20;72.00;;;;;;10526333;28;20278;-80
2022/08/24 01:08:23;;;;;;;4.80;4.50;;;21.20;72.20;;;;;;10524125;28;20220;-80
2022/08/24 01:13:26;;;;;;;5.90;5.30;;;21.10;72.50;;;;;;10468925;28;20295;-80
2022/08/24 01:23:57;;;;;;;4.67;4.37;;;21.10;72.50;;;;;;10485282;28;20203;-79
2022/08/24 01:29:03;;;;;;;4.93;4.63;;;21.00;72.70;;;;;;10470741;28;20219;-78
2022/08/24 01:34:06;;;;;;;4.40;4.20;;;21.00;72.00;;;;;;10515118;28;20220;-79
2022/08/24 01:39:14;;;;;;;4.77;4.47;;;21.00;71.50;;;;;;10483712;28;20211;-77
2022/08/24 01:44:17;;;;;;;5.60;5.03;;;21.00;71.60;;;;;;10495169;28;20257;-78
2022/08/24 01:49:21;;;;;;;6.60;5.23;;;20.90;72.10;;;;;;10513258;28;20217;-80
2022/08/24 01:54:26;;;;;;;5.33;4.83;;;20.80;72.60;;;;;;10478130;28;20520;-78
2022/08/24 01:59:28;;;;;;;4.63;4.23;;;20.80;72.60;;;;;;10514909;28;20258;-79
2022/08/24 02:04:33;;;;;;;4.77;4.37;;;20.80;72.20;;;;;;10481725;28;20187;-79
2022/08/24 02:09:37;;;;;;;5.20;4.73;;;20.80;72.70;;;;;;10516544;28;20241;-79
2022/08/24 02:14:40;;;;;;;4.93;4.53;;;20.80;72.40;;;;;;10500391;28;20188;-79
2022/08/24 02:19:42;;;;;;;4.90;4.50;;;20.70;73.00;;;;;;10499259;28;20219;-79
2022/08/24 02:24:46;;;;;;;4.80;4.50;;;20.70;72.80;;;;;;10473206;28;20197;-79
2022/08/24 02:29:49;;;;;;;5.80;5.40;;;20.70;72.70;;;;;;10498513;28;20710;-79
2022/08/24 02:34:51;;;;;;;7.63;4.83;;;20.60;72.60;;;;;;10495822;28;20645;-79
2022/08/24 02:39:55;;;;;;;4.63;4.33;;;20.60;73.10;;;;;;10517794;28;20706;-79
2022/08/24 02:45:00;;;;;;;5.60;5.20;;;20.60;73.20;;;;;;10477860;28;20220;-79
2022/08/24 02:50:04;;;;;;;5.30;5.00;;;20.50;72.70;;;;;;10512948;28;20247;-78
2022/08/24 02:55:10;;;;;;;4.80;4.50;;;20.50;73.50;;;;;;10466011;28;20507;-79
2022/08/24 03:00:16;;;;;;;6.60;5.20;;;20.40;72.90;;;;;;10515572;28;20702;-79
2022/08/24 03:05:25;;;;;;;5.33;5.03;;;20.40;73.70;;;;;;10498902;28;20192;-79
2022/08/24 03:10:30;;;;;;;6.43;5.83;;;20.40;73.40;;;;;;10541318;28;20614;-78
2022/08/24 03:15:32;;;;;;;6.10;5.70;;;20.30;73.50;;;;;;10478688;28;20625;-78
2022/08/24 03:20:34;;;;;;;5.77;5.47;;;20.20;74.70;;;;;;10536677;28;20239;-79
2022/08/24 03:25:38;;;;;;;6.17;5.77;;;20.20;73.90;;;;;;10463205;28;20205;-79
2022/08/24 03:30:41;;;;;;;5.83;5.53;;;20.20;74.30;;;;;;10548274;28;20269;-79
2022/08/24 03:35:43;;;;;;;6.57;6.10;;;20.20;74.50;;;;;;10491053;28;20212;-79
2022/08/24 03:40:49;;;;;;;5.40;5.10;;;20.20;74.90;;;;;;10531044;28;20244;-79
2022/08/24 03:45:51;;;;;;;6.07;5.73;;;20.20;74.60;;;;;;10489732;28;20272;-80
2022/08/24 03:50:54;;;;;;;6.67;6.23;;;20.10;75.10;;;;;;10539152;28;20215;-79
2022/08/24 03:55:57;;;;;;;7.27;6.77;;;20.10;75.70;;;;;;10459753;28;20217;-79
2022/08/24 04:00:59;;;;;;;6.33;5.73;;;20.10;75.80;;;;;;10463654;28;20208;-80
2022/08/24 04:06:04;;;;;;;6.50;5.90;;;20.10;75.30;;;;;;10441660;28;20216;-79
2022/08/24 04:11:10;;;;;;;7.37;6.77;;;20.10;75.70;;;;;;10506916;28;20301;-79
2022/08/24 04:16:16;;;;;;;5.33;5.03;;;20.00;75.70;;;;;;10463398;28;20196;-79
2022/08/24 04:21:20;;;;;;;7.70;7.10;;;20.00;75.20;;;;;;10528828;28;20212;-79
2022/08/24 04:26:26;;;;;;;7.63;7.03;;;19.90;75.40;;;;;;10428457;28;20216;-79
2022/08/24 04:31:30;;;;;;;7.67;7.10;;;19.90;75.70;;;;;;10447504;28;20228;-81
2022/08/24 04:36:34;;;;;;;8.43;6.83;;;19.80;76.80;;;;;;10465304;28;20211;-80
2022/08/24 04:41:39;;;;;;;6.37;5.50;;;19.80;77.10;;;;;;10544239;28;20216;-81
2022/08/24 04:46:41;;;;;;;6.90;6.47;;;19.80;76.90;;;;;;10488624;28;20193;-81
2022/08/24 04:51:44;;;;;;;7.90;7.40;;;19.80;77.40;;;;;;10531426;28;20361;-81
2022/08/24 04:56:48;;;;;;;7.93;7.43;;;19.80;76.70;;;;;;10492294;28;20258;-81
2022/08/24 05:01:51;;;;;;;7.40;6.80;;;19.90;76.40;;;;;;10479009;28;20208;-81
2022/08/24 05:06:53;;;;;;;7.90;7.27;;;19.80;76.20;;;;;;10545469;28;20241;-81
2022/08/24 05:11:57;;;;;;;7.10;6.63;;;19.80;76.70;;;;;;10498720;28;20216;-81
2022/08/24 05:17:02;;;;;;;8.33;7.77;;;19.80;77.30;;;;;;10511065;28;20192;-80
2022/08/24 05:22:04;;;;;;;8.27;7.67;;;19.80;77.40;;;;;;10488640;28;20239;-80
2022/08/24 05:27:07;;;;;;;8.80;8.10;;;19.90;77.70;;;;;;10465810;28;20663;-78
2022/08/24 05:32:10;;;;;;;8.00;7.40;;;20.00;77.50;;;;;;10519896;28;20222;-80
2022/08/24 05:37:12;;;;;;;8.00;7.27;;;20.00;77.50;;;;;;10485629;28;20231;-79
2022/08/24 05:42:34;;;;;;;7.97;7.43;;;20.10;77.90;;;;;;10524052;28;20306;-80
2022/08/24 05:47:37;;;;;;;7.20;6.80;;;20.20;78.20;;;;;;10467190;28;20232;-80
2022/08/24 05:52:51;;;;;;;8.50;7.90;;;20.20;77.80;;;;;;10441444;28;20506;-80
2022/08/24 05:57:56;;;;;;;8.10;7.70;;;20.40;78.10;;;;;;10477322;28;20205;-80
2022/08/24 06:02:59;;;;;;;7.43;6.93;;;20.40;77.30;;;;;;10443052;28;20268;-81
2022/08/24 06:08:02;;;;;;;8.83;8.33;;;20.50;77.50;;;;;;10530026;28;20637;-80
2022/08/24 06:13:07;;;;;;;8.13;7.63;;;20.60;77.00;;;;;;10483607;28;20275;-80
2022/08/24 06:18:09;;;;;;;15.80;14.00;;;20.60;77.60;;;;;;10520644;28;20200;-78
2022/08/24 06:23:12;;;;;;;7.13;6.63;;;20.70;77.30;;;;;;10486337;28;20207;-79
2022/08/24 06:28:24;;;;;;;7.87;7.47;;;20.80;77.10;;;;;;10453457;28;20221;-80
2022/08/24 06:33:26;;;;;;;8.00;7.40;;;20.80;77.60;;;;;;10506926;28;20203;-79
2022/08/24 06:38:31;;;;;;;10.33;7.97;;;20.90;77.50;;;;;;10483685;28;20214;-80
2022/08/24 06:43:35;;;;;;;9.17;8.40;;;21.00;77.70;;;;;;10524127;28;20226;-80
2022/08/24 06:48:45;;;;;;;9.00;8.27;;;21.10;77.10;;;;;;10441801;28;20213;-80
2022/08/24 06:53:49;;;;;;;6.90;6.50;;;21.30;76.20;;;;;;10521524;28;20222;-81
2022/08/24 06:58:53;;;;;;;7.83;7.20;;;21.40;76.80;;;;;;10521314;28;20262;-80
2022/08/24 07:03:56;;;;;;;8.70;8.20;;;21.50;75.90;;;;;;10488156;28;20257;-80
2022/08/24 07:09:17;;;;;;;8.90;8.37;;;21.70;76.40;;;;;;10471612;28;20216;-79
2022/08/24 07:14:21;;;;;;;9.60;8.90;;;21.80;76.80;;;;;;10494508;28;20529;-80
2022/08/24 07:19:24;;;;;;;8.83;8.23;;;22.00;76.20;;;;;;10532850;28;20687;-80
2022/08/24 07:24:27;;;;;;;8.80;8.00;;;22.00;75.90;;;;;;10469068;28;20205;-80
2022/08/24 07:29:31;;;;;;;10.57;9.77;;;22.20;75.70;;;;;;10537759;22;20235;-82
2022/08/24 07:34:34;;;;;;;9.70;9.00;;;22.30;76.20;;;;;;10489012;28;20219;-82
2022/08/24 07:39:37;;;;;;;8.90;8.30;;;22.40;76.00;;;;;;10472387;28;20221;-82
2022/08/24 07:44:41;;;;;;;9.37;8.73;;;22.50;74.80;;;;;;10528297;28;20287;-82
2022/08/24 07:49:44;;;;;;;9.30;8.70;;;22.70;74.90;;;;;;10487623;28;20310;-82
2022/08/24 07:54:46;;;;;;;8.50;7.90;;;22.90;74.90;;;;;;10527069;28;20191;-82
2022/08/24 07:59:50;;;;;;;9.63;8.63;;;23.10;74.90;;;;;;10526924;28;20576;-82
2022/08/24 08:04:55;;;;;;;8.73;8.23;;;23.30;73.00;;;;;;10492671;28;20192;-82
2022/08/24 08:09:57;;;;;;;6.80;6.20;;;23.50;72.00;;;;;;10512219;28;20227;-82
2022/08/24 08:15:01;;;;;;;6.67;6.37;;;23.70;69.00;;;;;;10477687;28;20231;-82
2022/08/24 08:20:05;;;;;;;7.07;6.60;;;23.90;63.50;;;;;;10513899;28;20220;-82
2022/08/24 08:25:08;;;;;;;6.97;6.57;;;24.20;63.50;;;;;;10534905;28;20204;-82
2022/08/24 08:30:14;;;;;;;6.77;6.27;;;24.30;62.80;;;;;;10529284;28;20249;-82
2022/08/24 08:35:18;;;;;;;6.43;6.10;;;24.50;62.10;;;;;;10527251;28;20283;-81
2022/08/24 08:40:34;;;;;;;6.03;5.73;;;24.60;63.50;;;;;;10529482;28;20220;-82
2022/08/24 08:46:01;;;;;;;5.50;5.20;;;24.80;64.10;;;;;;10537280;28;20191;-82
2022/08/24 08:51:55;;;;;;;6.17;5.73;;;25.00;63.60;;;;;;10524034;28;20747;-82
2022/08/24 08:57:13;;;;;;;5.97;5.67;;;25.10;62.70;;;;;;10514173;28;20283;-82
2022/08/24 09:02:36;;;;;;;7.40;6.60;;;25.10;62.00;;;;;;10544283;28;20303;-82
2022/08/24 09:07:56;;;;;;;7.17;6.40;;;25.20;60.90;;;;;;10514690;28;20199;-82
2022/08/24 09:13:14;;;;;;;6.50;6.10;;;25.30;61.30;;;;;;10550365;28;20230;-82
2022/08/24 09:18:32;;;;;;;5.27;4.77;;;25.30;61.30;;;;;;10532391;28;20225;-82
2022/08/24 09:23:48;;;;;;;6.90;6.50;;;25.40;59.60;;;;;;10527849;28;20248;-82
2022/08/24 09:29:02;;;;;;;5.23;4.40;;;25.30;61.60;;;;;;10526546;28;20516;-82
2022/08/24 09:34:20;;;;;;;5.57;5.03;;;25.40;58.70;;;;;;10528413;28;20257;-82
2022/08/24 09:39:37;;;;;;;6.20;5.90;;;25.60;58.60;;;;;;10543803;28;20253;-82
2022/08/24 09:45:07;;;;;;;5.50;5.20;;;25.80;58.70;;;;;;10527854;28;20196;-82
2022/08/24 09:50:51;;;;;;;3.90;3.70;;;26.10;58.10;;;;;;10550036;28;20682;-81
2022/08/24 09:56:15;;;;;;;6.00;5.60;;;26.60;56.80;;;;;;10500478;28;20206;-82
2022/08/24 10:01:28;;;;;;;5.43;5.23;;;27.10;56.60;;;;;;10538004;28;20707;-81
2022/08/24 10:06:45;;;;;;;6.60;6.10;;;27.60;55.70;;;;;;10568285;28;20215;-81
2022/08/24 10:11:54;;;;;;;5.43;5.23;;;27.90;53.80;;;;;;10550418;28;20215;-82
2022/08/24 10:17:09;;;;;;;5.23;5.03;;;28.00;54.40;;;;;;10533102;28;20204;-82
2022/08/24 10:22:28;;;;;;;4.00;3.77;;;28.00;53.30;;;;;;10529920;28;20644;-82
2022/08/24 10:27:45;;;;;;;4.63;4.47;;;27.90;54.30;;;;;;10529719;28;20202;-82
2022/08/24 10:32:56;;;;;;;5.43;5.03;;;27.60;55.10;;;;;;10552636;28;20226;-81
2022/08/24 10:44:22;;;;;;;5.77;5.40;;;27.20;56.60;;;;;;10441616;28;20207;-81
2022/08/24 10:50:06;;;;;;;6.63;5.67;;;27.00;56.50;;;;;;10543633;28;20294;-82
2022/08/24 10:55:18;;;;;;;5.17;4.83;;;26.90;57.40;;;;;;10523348;28;20207;-81
2022/08/24 11:00:28;;;;;;;5.77;5.47;;;26.70;57.50;;;;;;10527606;28;20301;-81
2022/08/24 11:05:35;;;;;;;5.93;5.40;;;26.70;57.80;;;;;;10508790;28;20203;-81
2022/08/24 11:10:40;;;;;;;6.07;5.47;;;26.70;56.70;;;;;;10512302;28;20743;-81
2022/08/24 11:15:50;;;;;;;5.57;5.27;;;26.70;56.80;;;;;;10528897;28;20197;-81
2022/08/24 11:20:54;;;;;;;5.90;5.60;;;26.70;57.20;;;;;;10511172;28;20667;-81
2022/08/24 11:26:04;;;;;;;6.50;6.10;;;26.70;56.50;;;;;;10543523;28;20196;-81
2022/08/24 11:31:11;;;;;;;5.67;5.47;;;26.80;56.00;;;;;;10546352;28;20222;-81
2022/08/24 11:36:16;;;;;;;6.50;5.47;;;26.90;55.80;;;;;;10503856;28;20600;-81
2022/08/24 11:41:25;;;;;;;5.80;5.37;;;27.00;55.80;;;;;;10525462;28;20216;-81
2022/08/24 11:46:35;;;;;;;5.23;5.03;;;27.10;56.20;;;;;;10504485;28;20279;-81
2022/08/24 11:51:46;;;;;;;6.73;6.30;;;27.20;54.80;;;;;;10536284;28;20265;-81
2022/08/24 11:57:03;;;;;;;5.93;5.57;;;27.20;54.10;;;;;;10538609;28;20196;-81
2022/08/24 12:02:11;;;;;;;5.20;5.00;;;27.20;53.90;;;;;;10526539;28;20211;-81
2022/08/24 12:07:30;;;;;;;10.60;9.97;;;27.30;53.90;;;;;;10551924;28;20459;-81
2022/08/24 12:12:44;;;;;;;5.17;4.87;;;27.30;55.10;;;;;;10531691;28;20215;-81
2022/08/24 12:17:56;;;;;;;5.10;4.80;;;27.50;53.70;;;;;;10547073;28;20196;-81
2022/08/24 12:23:02;;;;;;;5.23;5.03;;;27.50;53.50;;;;;;10532540;28;20614;-81
2022/08/24 12:28:07;;;;;;;6.30;6.00;;;27.60;53.10;;;;;;10537479;28;20200;-81
2022/08/24 12:33:14;;;;;;;5.73;5.43;;;27.70;52.60;;;;;;10519686;28;20216;-81
2022/08/24 12:38:22;;;;;;;3.63;3.43;;;27.80;53.20;;;;;;10523116;28;20195;-81
2022/08/24 12:43:32;;;;;;;4.93;4.73;;;27.90;52.40;;;;;;10557959;28;20196;-81
2022/08/24 12:48:41;;;;;;;4.83;4.53;;;27.90;53.70;;;;;;10557942;28;20271;-81
2022/08/24 12:54:04;;;;;;;4.30;4.10;;;28.10;49.90;;;;;;10550107;28;20219;-81
2022/08/24 12:59:17;;;;;;;5.40;4.03;;;28.20;50.60;;;;;;10556181;28;20230;-81
2022/08/24 13:04:33;;;;;;;5.50;5.10;;;28.20;52.20;;;;;;10533518;28;20291;-81
2022/08/24 13:09:38;;;;;;;3.80;3.70;;;28.30;50.50;;;;;;10528450;28;20224;-81
2022/08/24 13:14:49;;;;;;;5.20;5.00;;;28.30;52.80;;;;;;10509465;28;20591;-81
2022/08/24 13:20:19;;;;;;;5.23;5.03;;;28.30;50.90;;;;;;10496647;28;20220;-81
2022/08/24 13:25:27;;;;;;;5.47;5.27;;;28.30;50.60;;;;;;10517524;28;20616;-81
2022/08/24 13:31:01;;;;;;;4.43;4.23;;;28.30;50.70;;;;;;10530224;22;20231;-81
2022/08/24 13:36:47;;;;;;;5.50;5.30;;;28.40;51.20;;;;;;10524215;28;20241;-80
2022/08/24 13:42:06;;;;;;;5.13;4.93;;;28.40;50.00;;;;;;10468169;28;20208;-80
2022/08/24 13:47:16;;;;;;;5.53;5.30;;;28.40;51.30;;;;;;10475260;28;20216;-81
2022/08/24 13:52:29;;;;;;;5.23;5.03;;;28.50;50.00;;;;;;10458270;28;20223;-80
2022/08/24 13:57:38;;;;;;;4.57;4.37;;;28.50;50.80;;;;;;10508734;28;20828;-79
2022/08/24 14:02:55;;;;;;;5.30;4.90;;;28.60;50.80;;;;;;10499312;28;20216;-80
2022/08/24 14:08:12;;;;;;;4.70;4.50;;;28.60;51.40;;;;;;10478492;28;20192;-80
2022/08/24 14:13:31;;;;;;;5.10;4.90;;;28.50;51.30;;;;;;10468909;28;20499;-81
2022/08/24 14:18:44;;;;;;;3.90;3.70;;;28.50;51.90;;;;;;10467534;28;20203;-81
2022/08/24 14:23:56;;;;;;;5.13;4.93;;;28.60;51.70;;;;;;10467436;28;20290;-80
2022/08/24 14:29:30;;;;;;;3.67;3.40;;;28.50;53.00;;;;;;10484020;28;20721;-81
2022/08/24 14:34:39;;;;;;;5.00;4.80;;;28.40;52.40;;;;;;10477292;28;20243;-79
2022/08/24 14:39:51;;;;;;;4.40;4.30;;;28.40;54.30;;;;;;10480628;28;20269;-80
2022/08/24 14:45:04;;;;;;;5.90;5.50;;;28.30;52.90;;;;;;10469555;28;20734;-80
2022/08/24 14:50:12;;;;;;;4.80;4.60;;;28.40;53.40;;;;;;10485130;28;20216;-78
2022/08/24 14:55:26;;;;;;;2.60;2.50;;;28.30;54.20;;;;;;10480947;28;20204;-80
2022/08/24 15:00:52;;;;;;;6.33;5.50;;;28.30;54.20;;;;;;10495776;28;20213;-80
2022/08/24 15:06:10;;;;;;;6.03;5.73;;;28.30;54.20;;;;;;10463157;28;20196;-80
2022/08/24 15:11:16;;;;;;;5.73;5.50;;;28.20;55.00;;;;;;10488356;28;20311;-80
2022/08/24 15:16:22;;;;;;;5.43;5.23;;;28.30;55.20;;;;;;10494321;28;20275;-79
2022/08/24 15:21:35;;;;;;;3.43;3.20;;;28.20;55.70;;;;;;10474141;28;20658;-80
2022/08/24 15:26:55;;;;;;;4.80;4.60;;;28.10;56.40;;;;;;10491087;28;20197;-80
2022/08/24 15:32:05;;;;;;;5.00;4.80;;;28.00;56.50;;;;;;10502519;28;20271;-80
2022/08/24 15:37:07;;;;;;;5.43;5.13;;;27.90;56.70;;;;;;10468534;28;20197;-81
2022/08/24 15:42:14;;;;;;;5.13;4.83;;;27.80;56.80;;;;;;10490534;28;20216;-81
2022/08/24 15:47:26;;;;;;;5.87;5.37;;;27.80;58.30;;;;;;10469199;28;20272;-80
2022/08/24 15:52:43;;;;;;;5.07;4.80;;;27.70;57.90;;;;;;10483499;28;20254;-79
2022/08/24 15:57:46;;;;;;;5.27;4.93;;;27.70;58.40;;;;;;10487443;28;20267;-80
2022/08/24 16:02:48;;;;;;;4.47;4.27;;;27.80;58.40;;;;;;10484118;28;20217;-79
2022/08/24 16:08:10;;;;;;;5.40;5.10;;;27.80;58.70;;;;;;10498611;28;20722;-79
2022/08/24 16:13:23;;;;;;;5.43;5.20;;;27.80;59.10;;;;;;10459701;28;20304;-78
2022/08/24 16:18:40;;;;;;;4.53;4.33;;;27.80;59.00;;;;;;10459709;28;20207;-79
2022/08/24 16:23:45;;;;;;;5.90;5.30;;;27.70;59.20;;;;;;10460880;28;20188;-79
2022/08/24 16:28:50;;;;;;;4.50;4.20;;;27.70;59.70;;;;;;10459963;28;20231;-80
2022/08/24 16:33:52;;;;;;;5.00;4.60;;;27.60;59.20;;;;;;10443552;28;20666;-81
2022/08/24 16:38:54;;;;;;;4.90;4.67;;;27.60;58.90;;;;;;10500415;28;20231;-82
2022/08/24 16:44:00;;;;;;;4.53;4.33;;;27.50;60.40;;;;;;10508678;28;20189;-81
2022/08/24 16:49:02;;;;;;;4.20;4.00;;;27.40;60.20;;;;;;10478018;28;20225;-81
2022/08/24 16:54:04;;;;;;;4.57;4.30;;;27.40;60.20;;;;;;10488672;28;20221;-80
2022/08/24 16:59:08;;;;;;;2.87;2.77;;;27.40;60.60;;;;;;10481686;28;20308;-80
2022/08/24 17:04:10;;;;;;;5.40;5.20;;;27.20;61.20;;;;;;10472704;28;20182;-79
2022/08/24 17:09:12;;;;;;;4.77;4.57;;;27.10;62.50;;;;;;10515984;28;20258;-80
2022/08/24 17:14:16;;;;;;;7.30;5.17;;;27.00;62.30;;;;;;10485159;28;20710;-78
2022/08/24 17:19:19;;;;;;;5.10;4.90;;;27.00;61.30;;;;;;10485754;28;20235;-79
2022/08/24 17:24:22;;;;;;;3.80;3.60;;;27.00;60.80;;;;;;10494344;28;20184;-80
2022/08/24 17:29:26;;;;;;;3.90;3.80;;;27.00;61.70;;;;;;10445101;28;20232;-80
2022/08/24 17:34:28;;;;;;;5.27;5.07;;;26.90;60.90;;;;;;10465473;28;20639;-79
2022/08/24 17:39:31;;;;;;;4.50;4.30;;;27.00;62.00;;;;;;10478918;28;20236;-80
2022/08/24 17:44:35;;;;;;;4.13;3.97;;;26.90;61.50;;;;;;10511556;28;20314;-79
2022/08/24 17:49:39;;;;;;;4.30;4.10;;;26.90;62.10;;;;;;10487967;28;20266;-79
2022/08/24 17:54:41;;;;;;;4.77;4.47;;;26.90;62.80;;;;;;10471387;28;20281;-80
2022/08/24 17:59:45;;;;;;;4.40;4.20;;;26.70;65.20;;;;;;10486317;28;20315;-81
2022/08/24 18:04:47;;;;;;;4.20;3.80;;;26.60;65.70;;;;;;10464401;28;20547;-79
2022/08/24 18:09:51;;;;;;;4.27;4.07;;;26.40;66.50;;;;;;10503470;28;20220;-80
2022/08/24 18:14:55;;;;;;;4.47;4.27;;;26.40;66.00;;;;;;10464347;28;20251;-81
2022/08/24 18:19:57;;;;;;;4.70;4.30;;;26.20;65.50;;;;;;10499257;28;20579;-78
2022/08/24 18:24:59;;;;;;;4.30;4.10;;;26.20;65.90;;;;;;10496885;28;20201;-79
2022/08/24 18:30:05;;;;;;;3.97;3.77;;;26.10;66.40;;;;;;10495309;28;20232;-78
2022/08/24 18:35:08;;;;;;;4.37;4.17;;;26.00;66.70;;;;;;10456619;28;20949;-79
2022/08/24 18:40:12;;;;;;;4.73;4.53;;;25.90;67.10;;;;;;10435097;28;20744;-77
2022/08/24 18:45:15;;;;;;;4.33;3.30;;;25.90;67.80;;;;;;10490663;28;20231;-79
2022/08/24 18:50:18;;;;;;;4.40;4.20;;;25.80;68.00;;;;;;10436377;28;20296;-79
2022/08/24 18:55:20;;;;;;;3.97;3.77;;;25.70;68.50;;;;;;10470111;28;20220;-79
2022/08/24 19:00:24;;;;;;;4.30;4.10;;;25.60;68.70;;;;;;10494926;28;20216;-78
2022/08/24 19:05:26;;;;;;;4.20;4.00;;;25.50;70.70;;;;;;10448462;28;20827;-79
2022/08/24 19:10:34;;;;;;;4.50;4.30;;;25.50;70.00;;;;;;10490758;28;20216;-79
2022/08/24 19:15:37;;;;;;;4.63;4.30;;;25.40;69.90;;;;;;10473437;28;20222;-79
2022/08/24 19:20:42;;;;;;;4.53;4.23;;;25.30;69.90;;;;;;10477122;28;20220;-79
2022/08/24 19:25:45;;;;;;;4.50;4.30;;;25.30;70.50;;;;;;10474717;28;20232;-79
2022/08/24 19:30:49;;;;;;;3.93;3.73;;;25.20;70.70;;;;;;10537407;22;20235;-82
2022/08/24 19:35:52;;;;;;;3.87;3.67;;;25.10;71.20;;;;;;10528712;28;20224;-81
2022/08/24 19:40:56;;;;;;;4.63;4.03;;;25.10;71.70;;;;;;10547761;28;20223;-81
2022/08/24 19:46:04;;;;;;;9.87;9.07;;;25.00;71.80;;;;;;10479520;28;20208;-81
2022/08/24 19:51:10;;;;;;;6.17;4.10;;;24.90;72.90;;;;;;10472125;28;20945;-80
2022/08/24 19:56:12;;;;;;;4.70;4.40;;;24.90;73.50;;;;;;10499729;28;20228;-80
2022/08/24 20:01:19;;;;;;;4.40;4.10;;;24.80;74.50;;;;;;10489106;28;20205;-82
2022/08/24 20:06:23;;;;;;;4.47;4.23;;;24.80;75.00;;;;;;10502339;28;20199;-80
2022/08/24 20:11:25;;;;;;;4.60;4.30;;;24.70;74.20;;;;;;10471005;28;20215;-78
2022/08/24 20:16:35;;;;;;;4.53;4.23;;;24.70;75.00;;;;;;10473437;28;20204;-80
2022/08/24 20:21:37;;;;;;;4.90;4.60;;;24.60;74.80;;;;;;10487722;28;20205;-79
2022/08/24 20:26:42;;;;;;;3.90;3.70;;;24.60;75.70;;;;;;10476394;28;20672;-79
2022/08/24 20:31:47;;;;;;;4.63;4.33;;;24.50;74.90;;;;;;10459689;28;20683;-78
2022/08/24 20:36:50;;;;;;;4.17;3.97;;;24.50;74.90;;;;;;10479655;28;20202;-79
2022/08/24 20:41:53;;;;;;;4.97;4.70;;;24.40;74.90;;;;;;10468713;28;20224;-80
2022/08/24 20:46:56;;;;;;;4.07;3.87;;;24.40;75.20;;;;;;10486188;28;20684;-79
2022/08/24 20:51:59;;;;;;;5.40;5.10;;;24.40;75.00;;;;;;10465817;28;20221;-78
2022/08/24 20:57:02;;;;;;;4.30;4.10;;;24.30;75.40;;;;;;10482690;28;20193;-79
2022/08/24 21:02:05;;;;;;;4.47;3.73;;;24.30;75.20;;;;;;10483727;28;20655;-79
2022/08/24 21:07:11;;;;;;;4.20;3.90;;;24.20;75.50;;;;;;10500388;28;20251;-79
2022/08/24 21:12:13;;;;;;;4.50;4.30;;;24.20;75.40;;;;;;10480874;28;20221;-79
2022/08/24 21:17:16;;;;;;;4.47;4.17;;;24.10;75.60;;;;;;10474888;28;20205;-79
2022/08/24 21:22:18;;;;;;;4.87;4.33;;;24.10;75.70;;;;;;10464284;28;20692;-80
2022/08/24 21:27:20;;;;;;;4.23;3.93;;;24.00;76.20;;;;;;10456259;28;20771;-79
2022/08/24 21:37:43;;;;;;;4.77;4.47;;;23.90;76.00;;;;;;10454944;28;20664;-79
2022/08/24 21:42:46;;;;;;;4.33;4.10;;;23.90;75.90;;;;;;10474819;28;20375;-79
2022/08/24 21:47:49;;;;;;;3.90;3.60;;;23.80;76.30;;;;;;10463096;28;20247;-79
2022/08/24 21:52:52;;;;;;;3.97;3.77;;;23.80;77.20;;;;;;10461113;28;20228;-79
2022/08/24 21:57:54;;;;;;;4.67;4.37;;;23.70;76.40;;;;;;10473008;28;20634;-78
2022/08/24 22:02:58;;;;;;;4.20;4.00;;;23.70;76.30;;;;;;10455011;28;20213;-81
2022/08/24 22:08:00;;;;;;;4.27;3.93;;;23.70;76.10;;;;;;10456295;28;20209;-80
2022/08/24 22:13:02;;;;;;;4.20;4.00;;;23.60;76.30;;;;;;10479306;28;20209;-80
2022/08/24 22:18:06;;;;;;;4.80;4.43;;;23.50;77.50;;;;;;10463064;28;20259;-80
2022/08/24 22:23:08;;;;;;;4.53;4.33;;;23.50;77.00;;;;;;10493572;28;20224;-79
2022/08/24 22:28:10;;;;;;;4.30;3.97;;;23.50;77.00;;;;;;10440569;28;20661;-80
2022/08/24 22:33:14;;;;;;;4.90;4.60;;;23.40;77.10;;;;;;10492963;28;20312;-79
2022/08/24 22:38:16;;;;;;;4.67;4.47;;;23.40;77.10;;;;;;10486738;28;20205;-80
2022/08/24 22:43:18;;;;;;;4.80;4.60;;;23.40;76.60;;;;;;10489553;28;20211;-79
2022/08/24 22:48:22;;;;;;;4.30;4.00;;;23.40;76.50;;;;;;10498278;28;20228;-80
2022/08/24 22:53:24;;;;;;;4.03;3.83;;;23.40;77.50;;;;;;10463089;28;20220;-78
2022/08/24 22:58:26;;;;;;;4.00;3.80;;;23.30;76.70;;;;;;10476879;28;20259;-78
2022/08/24 23:03:30;;;;;;;4.20;3.90;;;23.30;77.30;;;;;;10460936;28;20289;-79
2022/08/24 23:08:32;;;;;;;4.60;4.30;;;23.30;77.80;;;;;;10495899;28;20193;-80
2022/08/24 23:13:36;;;;;;;4.00;3.80;;;23.30;77.40;;;;;;10454448;28;20247;-80
2022/08/24 23:24:00;;;;;;;4.63;4.33;;;23.20;77.80;;;;;;10502707;28;20208;-80
2022/08/24 23:29:03;;;;;;;5.13;4.73;;;23.10;78.10;;;;;;10545072;28;20281;-80
2022/08/24 23:34:07;;;;;;;4.60;4.30;;;23.00;78.00;;;;;;10509937;28;20270;-80
2022/08/24 23:39:11;;;;;;;4.33;4.13;;;23.00;78.40;;;;;;10528759;28;20236;-80
2022/08/24 23:44:15;;;;;;;4.37;4.07;;;23.00;78.60;;;;;;10497328;28;20222;-80
2022/08/24 23:49:21;;;;;;;4.50;4.30;;;22.90;78.10;;;;;;10541219;28;20216;-80
2022/08/24 23:54:24;;;;;;;4.27;4.07;;;22.90;78.80;;;;;;10513481;28;20284;-80
2022/08/24 23:59:29;;;;;;;4.27;4.07;;;22.90;79.10;;;;;;10542786;28;20231;-80
